Time,TemperatureF,DewpointF,PressureIn,WindDirection,WindDirectionDegrees,WindSpeedMPH,WindSpeedGustMPH,Humidity,HourlyPrecipIn,Conditions,Clouds,dailyrainin,SoftwareType,DateUTC
2013-11-16 00:01:00,49.3,22.0,29.72,South,180,12.8,12.8,34,0.00,,,0.00,WUHU216HW,2013-11-16 06:01:00,
2013-11-16 00:06:00,49.3,22.0,29.72,South,180,6.3,12.8,34,0.00,,,0.00,WUHU216HW,2013-11-16 06:06:00,
2013-11-16 00:11:00,49.1,21.1,29.72,South,180,12.8,12.8,33,0.00,,,0.00,WUHU216HW,2013-11-16 06:11:00,
2013-11-16 00:16:00,49.1,21.1,29.72,South,180,13.4,13.4,33,0.00,,,0.00,WUHU216HW,2013-11-16 06:16:00,
2013-11-16 00:21:00,49.1,21.1,29.72,South,180,11.9,13.4,33,0.00,,,0.00,WUHU216HW,2013-11-16 06:21:00,
2013-11-16 00:26:00,49.1,21.1,29.72,South,180,10.5,13.4,33,0.00,,,0.00,WUHU216HW,2013-11-16 06:26:00,
2013-11-16 00:31:00,49.1,20.4,29.72,South,180,11.4,11.9,32,0.00,,,0.00,WUHU216HW,2013-11-16 06:31:00,
2013-11-16 00:36:00,49.1,20.4,29.72,SSW,203,9.8,11.4,32,0.00,,,0.00,WUHU216HW,2013-11-16 06:36:00,
2013-11-16 00:41:00,49.1,19.7,29.72,South,180,12.1,12.1,31,0.00,,,0.00,WUHU216HW,2013-11-16 06:41:00,
2013-11-16 00:46:00,49.1,20.4,29.72,SSE,158,7.6,12.1,32,0.00,,,0.00,WUHU216HW,2013-11-16 06:46:00,
2013-11-16 00:51:00,49.1,21.1,29.72,South,180,9.8,12.1,33,0.00,,,0.00,WUHU216HW,2013-11-16 06:51:00,
2013-11-16 00:56:00,49.1,19.7,29.72,South,180,8.9,13.4,31,0.00,,,0.00,WUHU216HW,2013-11-16 06:56:00,
2013-11-16 01:01:00,49.3,20.6,29.72,South,180,10.5,13.4,32,0.00,,,0.00,WUHU216HW,2013-11-16 07:01:00,
2013-11-16 01:06:00,49.1,19.1,29.72,South,180,9.2,12.1,30,0.00,,,0.00,WUHU216HW,2013-11-16 07:06:00,
2013-11-16 01:11:00,49.3,19.9,29.72,South,180,11.4,11.4,31,0.00,,,0.00,WUHU216HW,2013-11-16 07:11:00,
2013-11-16 01:16:00,49.3,20.6,29.71,SSW,203,8.9,11.4,32,0.00,,,0.00,WUHU216HW,2013-11-16 07:16:00,
2013-11-16 01:21:00,49.3,20.6,29.71,South,180,9.2,11.6,32,0.00,,,0.00,WUHU216HW,2013-11-16 07:21:00,
2013-11-16 01:26:00,49.3,20.6,29.71,SSE,158,11.9,11.9,32,0.00,,,0.00,WUHU216HW,2013-11-16 07:26:00,
2013-11-16 01:31:00,49.3,19.9,29.71,South,180,11.4,11.9,31,0.00,,,0.00,WUHU216HW,2013-11-16 07:31:00,
2013-11-16 01:36:00,49.3,20.6,29.71,SSE,158,7.8,11.9,32,0.00,,,0.00,WUHU216HW,2013-11-16 07:36:00,
2013-11-16 01:41:00,49.3,19.9,29.71,South,180,9.6,11.4,31,0.00,,,0.00,WUHU216HW,2013-11-16 07:41:00,
2013-11-16 01:46:00,49.3,19.9,29.70,SSE,158,8.3,11.2,31,0.00,,,0.00,WUHU216HW,2013-11-16 07:46:00,
2013-11-16 01:51:00,49.3,19.9,29.69,South,180,11.6,11.6,31,0.00,,,0.00,WUHU216HW,2013-11-16 07:51:00,
2013-11-16 01:56:00,49.3,19.9,29.69,SSE,158,11.9,11.9,31,0.00,,,0.00,WUHU216HW,2013-11-16 07:56:00,
2013-11-16 02:01:00,49.3,19.9,29.70,South,180,8.5,11.9,31,0.00,,,0.00,WUHU216HW,2013-11-16 08:01:00,
2013-11-16 02:06:00,49.3,19.9,29.69,SSE,158,8.5,11.9,31,0.00,,,0.00,WUHU216HW,2013-11-16 08:06:00,
2013-11-16 02:11:00,49.3,18.3,29.69,South,180,10.5,12.1,29,0.00,,,0.00,WUHU216HW,2013-11-16 08:11:00,
2013-11-16 02:16:00,49.5,20.1,29.69,South,180,9.2,12.1,31,0.00,,,0.00,WUHU216HW,2013-11-16 08:16:00,
2013-11-16 02:21:00,49.7,19.5,29.68,South,180,11.9,12.1,30,0.00,,,0.00,WUHU216HW,2013-11-16 08:21:00,
2013-11-16 02:26:00,49.9,19.6,29.68,SSW,203,13.4,13.4,30,0.00,,,0.00,WUHU216HW,2013-11-16 08:26:00,
2013-11-16 02:31:00,50.0,20.5,29.68,SSE,158,12.5,13.4,31,0.00,,,0.00,WUHU216HW,2013-11-16 08:31:00,
2013-11-16 02:36:00,50.0,20.5,29.68,SSE,158,11.0,12.5,31,0.00,,,0.00,WUHU216HW,2013-11-16 08:36:00,
2013-11-16 02:41:00,50.2,20.6,29.68,SSE,158,14.1,14.3,31,0.00,,,0.00,WUHU216HW,2013-11-16 08:41:00,
2013-11-16 02:46:00,50.4,20.8,29.68,South,180,10.1,14.3,31,0.00,,,0.00,WUHU216HW,2013-11-16 08:46:00,
2013-11-16 02:51:00,50.4,20.2,29.68,SSW,203,9.6,10.1,30,0.00,,,0.00,WUHU216HW,2013-11-16 08:51:00,
2013-11-16 02:56:00,50.6,21.7,29.68,SSE,158,10.5,10.5,32,0.00,,,0.00,WUHU216HW,2013-11-16 08:56:00,
2013-11-16 03:01:00,50.8,21.8,29.67,South,180,9.8,10.5,32,0.00,,,0.00,WUHU216HW,2013-11-16 09:01:00,
2013-11-16 03:07:00,50.8,21.8,29.67,South,180,10.7,12.1,32,0.00,,,0.00,WUHU216HW,2013-11-16 09:07:00,
2013-11-16 03:12:00,50.8,21.2,29.67,South,180,12.1,12.1,31,0.00,,,0.00,WUHU216HW,2013-11-16 09:12:00,
2013-11-16 03:17:00,50.8,21.2,29.66,SSE,158,8.5,12.1,31,0.00,,,0.00,WUHU216HW,2013-11-16 09:17:00,
2013-11-16 03:22:00,50.9,20.6,29.66,SE,135,8.1,8.5,30,0.00,,,0.00,WUHU216HW,2013-11-16 09:22:00,
2013-11-16 03:27:00,51.1,20.8,29.65,South,180,9.8,9.8,30,0.00,,,0.00,WUHU216HW,2013-11-16 09:27:00,
2013-11-16 03:32:00,51.3,21.0,29.65,South,180,10.1,11.0,30,0.00,,,0.00,WUHU216HW,2013-11-16 09:32:00,
2013-11-16 03:37:00,51.3,20.0,29.65,South,180,10.3,11.0,29,0.00,,,0.00,WUHU216HW,2013-11-16 09:37:00,
2013-11-16 03:42:00,51.5,20.2,29.64,SSE,158,11.0,11.0,29,0.00,,,0.00,WUHU216HW,2013-11-16 09:42:00,
2013-11-16 03:47:00,51.7,20.4,29.64,SSE,158,11.9,11.9,29,0.00,,,0.00,WUHU216HW,2013-11-16 09:47:00,
2013-11-16 03:52:00,52.0,20.6,29.64,SSE,158,9.8,11.9,29,0.00,,,0.00,WUHU216HW,2013-11-16 09:52:00,
2013-11-16 03:57:00,52.2,20.8,29.63,SSE,158,9.2,10.3,29,0.00,,,0.00,WUHU216HW,2013-11-16 09:57:00,
2013-11-16 04:02:00,52.2,20.8,29.63,South,180,10.3,10.3,29,0.00,,,0.00,WUHU216HW,2013-11-16 10:02:00,
2013-11-16 04:07:00,52.4,20.0,29.63,South,180,15.0,15.0,28,0.00,,,0.00,WUHU216HW,2013-11-16 10:07:00,
2013-11-16 04:12:00,52.6,21.2,29.63,South,180,12.1,15.0,29,0.00,,,0.00,WUHU216HW,2013-11-16 10:12:00,
2013-11-16 04:17:00,52.7,20.3,29.63,South,180,11.4,12.1,28,0.00,,,0.00,WUHU216HW,2013-11-16 10:17:00,
2013-11-16 04:22:00,52.9,20.5,29.63,South,180,15.0,15.0,28,0.00,,,0.00,WUHU216HW,2013-11-16 10:22:00,
2013-11-16 04:27:00,53.3,20.8,29.62,South,180,11.0,15.0,28,0.00,,,0.00,WUHU216HW,2013-11-16 10:27:00,
2013-11-16 04:32:00,53.3,20.8,29.62,SSW,203,12.1,12.1,28,0.00,,,0.00,WUHU216HW,2013-11-16 10:32:00,
2013-11-16 04:37:00,53.5,20.0,29.61,South,180,11.2,13.2,27,0.00,,,0.00,WUHU216HW,2013-11-16 10:37:00,
2013-11-16 04:42:00,53.8,20.4,29.62,SSE,158,12.1,13.2,27,0.00,,,0.00,WUHU216HW,2013-11-16 10:42:00,
2013-11-16 04:47:00,54.0,21.4,29.62,South,180,11.2,12.1,28,0.00,,,0.00,WUHU216HW,2013-11-16 10:47:00,
2013-11-16 04:52:00,54.2,20.6,29.61,South,180,13.6,13.6,27,0.00,,,0.00,WUHU216HW,2013-11-16 10:52:00,
2013-11-16 04:57:00,54.2,21.6,29.61,South,180,15.9,15.9,28,0.00,,,0.00,WUHU216HW,2013-11-16 10:57:00,
2013-11-16 05:02:00,54.4,21.7,29.61,South,180,10.5,15.9,28,0.00,,,0.00,WUHU216HW,2013-11-16 11:02:00,
2013-11-16 05:07:00,54.4,20.8,29.61,South,180,13.6,15.9,27,0.00,,,0.00,WUHU216HW,2013-11-16 11:07:00,
2013-11-16 05:12:00,54.5,21.0,29.61,SSW,203,12.1,14.5,27,0.00,,,0.00,WUHU216HW,2013-11-16 11:12:00,
2013-11-16 05:17:00,54.7,22.1,29.61,SSW,203,12.1,14.5,28,0.00,,,0.00,WUHU216HW,2013-11-16 11:17:00,
2013-11-16 05:22:00,54.9,21.3,29.60,SSW,203,11.4,12.1,27,0.00,,,0.00,WUHU216HW,2013-11-16 11:22:00,
2013-11-16 05:27:00,55.1,19.5,29.60,South,180,13.0,13.0,25,0.00,,,0.00,WUHU216HW,2013-11-16 11:27:00,
2013-11-16 05:32:00,55.3,21.5,29.60,South,180,11.2,13.0,27,0.00,,,0.00,WUHU216HW,2013-11-16 11:32:00,
2013-11-16 05:37:00,55.4,19.8,29.60,SSE,158,10.5,13.0,25,0.00,,,0.00,WUHU216HW,2013-11-16 11:37:00,
2013-11-16 05:42:00,55.8,22.0,29.60,South,180,8.5,10.5,27,0.00,,,0.00,WUHU216HW,2013-11-16 11:42:00,
2013-11-16 05:47:00,55.8,20.1,29.60,SSE,158,12.1,12.1,25,0.00,,,0.00,WUHU216HW,2013-11-16 11:47:00,
2013-11-16 05:52:00,56.0,22.1,29.59,South,180,17.0,17.0,27,0.00,,,0.00,WUHU216HW,2013-11-16 11:52:00,
2013-11-16 05:57:00,56.2,22.3,29.59,SSW,203,11.9,17.0,27,0.00,,,0.00,WUHU216HW,2013-11-16 11:57:00,
2013-11-16 06:02:00,56.3,21.5,29.58,South,180,12.8,13.2,26,0.00,,,0.00,WUHU216HW,2013-11-16 12:02:00,
2013-11-16 06:07:00,56.3,20.5,29.58,SSW,203,11.6,13.2,25,0.00,,,0.00,WUHU216HW,2013-11-16 12:07:00,
2013-11-16 06:12:00,56.5,20.7,29.58,SSW,203,14.3,14.3,25,0.00,,,0.00,WUHU216HW,2013-11-16 12:12:00,
2013-11-16 06:17:00,56.5,22.6,29.58,South,180,11.4,14.3,27,0.00,,,0.00,WUHU216HW,2013-11-16 12:17:00,
2013-11-16 06:22:00,56.7,19.9,29.58,South,180,10.3,14.3,24,0.00,,,0.00,WUHU216HW,2013-11-16 12:22:00,
2013-11-16 06:27:00,56.9,21.1,29.58,South,180,14.1,14.1,25,0.00,,,0.00,WUHU216HW,2013-11-16 12:27:00,
2013-11-16 06:32:00,56.9,21.1,29.58,SSW,203,14.1,14.1,25,0.00,,,0.00,WUHU216HW,2013-11-16 12:32:00,
2013-11-16 06:37:00,57.2,21.3,29.58,South,180,11.2,14.1,25,0.00,,,0.00,WUHU216HW,2013-11-16 12:37:00,
2013-11-16 06:42:00,57.2,21.3,29.58,South,180,9.4,12.1,25,0.00,,,0.00,WUHU216HW,2013-11-16 12:42:00,
2013-11-16 06:47:00,57.4,21.5,29.58,South,180,10.5,11.4,25,0.00,,,0.00,WUHU216HW,2013-11-16 12:47:00,
2013-11-16 06:52:00,57.6,21.6,29.58,South,180,12.1,12.5,25,0.00,,,0.00,WUHU216HW,2013-11-16 12:52:00,
2013-11-16 06:57:00,57.8,21.8,29.57,South,180,11.6,12.5,25,0.00,,,0.00,WUHU216HW,2013-11-16 12:57:00,
2013-11-16 07:02:00,58.0,22.0,29.57,South,180,12.8,12.8,25,0.00,,,0.00,WUHU216HW,2013-11-16 13:02:00,
2013-11-16 07:07:00,58.0,22.0,29.57,SSW,203,12.8,12.8,25,0.00,,,0.00,WUHU216HW,2013-11-16 13:07:00,
2013-11-16 07:12:00,58.3,22.2,29.56,South,180,14.8,14.8,25,0.00,,,0.00,WUHU216HW,2013-11-16 13:12:00,
2013-11-16 07:17:00,58.3,24.2,29.56,SSW,203,11.9,14.8,27,0.00,,,0.00,WUHU216HW,2013-11-16 13:17:00,
2013-11-16 07:22:00,58.7,24.5,29.56,SSW,203,12.5,14.8,27,0.00,,,0.00,WUHU216HW,2013-11-16 13:22:00,
2013-11-16 07:27:00,58.7,24.5,29.56,SSE,158,14.3,14.3,27,0.00,,,0.00,WUHU216HW,2013-11-16 13:27:00,
2013-11-16 07:32:00,58.9,24.7,29.56,SSW,203,11.2,14.3,27,0.00,,,0.00,WUHU216HW,2013-11-16 13:32:00,
2013-11-16 07:37:00,59.0,24.9,29.56,SSW,203,9.8,14.3,27,0.00,,,0.00,WUHU216HW,2013-11-16 13:37:00,
2013-11-16 07:42:00,59.0,25.7,29.56,South,180,14.1,14.1,28,0.00,,,0.00,WUHU216HW,2013-11-16 13:42:00,
2013-11-16 07:47:00,59.2,24.9,29.57,South,180,15.7,15.7,27,0.00,,,0.00,WUHU216HW,2013-11-16 13:47:00,
2013-11-16 07:52:00,59.4,25.1,29.57,South,180,9.8,15.7,27,0.00,,,0.00,WUHU216HW,2013-11-16 13:52:00,
2013-11-16 07:57:00,59.4,25.1,29.58,SSW,203,14.3,14.3,27,0.00,,,0.00,WUHU216HW,2013-11-16 13:57:00,
2013-11-16 08:02:00,59.4,25.1,29.58,SSW,203,17.0,17.0,27,0.00,,,0.00,WUHU216HW,2013-11-16 14:02:00,
2013-11-16 08:07:00,59.8,25.4,29.58,SSE,158,19.0,19.0,27,0.00,,,0.00,WUHU216HW,2013-11-16 14:07:00,
2013-11-16 08:12:00,59.8,26.4,29.58,South,180,13.2,19.0,28,0.00,,,0.00,WUHU216HW,2013-11-16 14:12:00,
2013-11-16 08:17:00,59.9,23.7,29.58,SSW,203,14.8,14.8,25,0.00,,,0.00,WUHU216HW,2013-11-16 14:17:00,
2013-11-16 08:22:00,59.8,21.5,29.57,SSE,158,15.9,15.9,23,0.00,,,0.00,WUHU216HW,2013-11-16 14:22:00,
2013-11-16 08:27:00,58.7,11.1,29.57,South,180,15.9,15.9,15,0.01,,,0.00,WUHU216HW,2013-11-16 14:27:00,
2013-11-16 08:32:00,58.3,3.8,29.58,South,180,10.5,15.9,11,0.01,,,0.01,WUHU216HW,2013-11-16 14:32:00,
2013-11-16 08:37:00,58.1,1.8,29.57,SSW,203,14.3,15.9,7,0.01,,,0.01,WUHU216HW,2013-11-16 14:37:00,
2013-11-16 08:42:00,58.0,1.6,29.58,South,180,15.0,15.0,5,0.01,,,0.01,WUHU216HW,2013-11-16 14:42:00,
2013-11-16 08:47:00,57.8,1.5,29.58,South,180,17.7,18.6,2,0.01,,,0.01,WUHU216HW,2013-11-16 14:47:00,
2013-11-16 08:52:00,57.6,1.4,29.58,SSW,203,21.9,21.9,1,0.02,,,0.02,WUHU216HW,2013-11-16 14:52:00,
2013-11-16 08:57:00,57.8,1.5,29.58,South,180,13.4,21.9,1,0.02,,,0.02,WUHU216HW,2013-11-16 14:57:00,
2013-11-16 09:02:00,57.8,1.5,29.57,SSW,203,11.9,21.9,1,0.02,,,0.02,WUHU216HW,2013-11-16 15:02:00,
2013-11-16 09:07:00,57.8,1.5,29.57,South,180,15.7,15.7,1,0.03,,,0.03,WUHU216HW,2013-11-16 15:07:00,
2013-11-16 09:12:00,57.8,1.5,29.57,South,180,15.7,15.7,1,0.03,,,0.03,WUHU216HW,2013-11-16 15:12:00,
2013-11-16 09:35:00,57.6,1.4,29.55,South,180,12.8,12.8,1,0.03,,,0.03,WUHU216HW,2013-11-16 15:35:00,
2013-11-16 09:40:00,57.6,1.4,29.55,SSW,203,17.7,17.7,1,0.03,,,0.04,WUHU216HW,2013-11-16 15:40:00,
2013-11-16 09:45:00,58.0,1.6,29.55,SE,135,14.8,17.7,1,0.03,,,0.04,WUHU216HW,2013-11-16 15:45:00,
2013-11-16 09:50:00,58.3,2.0,29.56,South,180,18.1,18.1,1,0.02,,,0.04,WUHU216HW,2013-11-16 15:50:00,
2013-11-16 09:55:00,58.7,2.3,29.55,SSW,203,17.7,18.1,1,0.02,,,0.04,WUHU216HW,2013-11-16 15:55:00,
2013-11-16 10:00:00,58.9,2.3,29.56,SSW,203,18.1,18.1,1,0.02,,,0.04,WUHU216HW,2013-11-16 16:00:00,
2013-11-16 10:05:00,59.0,2.5,29.56,SSW,203,10.5,18.1,5,0.01,,,0.04,WUHU216HW,2013-11-16 16:05:00,
2013-11-16 10:10:00,59.0,2.5,29.57,SSW,203,19.5,19.5,5,0.01,,,0.04,WUHU216HW,2013-11-16 16:10:00,
2013-11-16 10:15:00,59.4,2.8,29.55,South,180,16.1,19.5,6,0.01,,,0.04,WUHU216HW,2013-11-16 16:15:00,
2013-11-16 10:20:00,59.8,3.1,29.54,SSE,158,15.0,19.5,7,0.01,,,0.04,WUHU216HW,2013-11-16 16:20:00,
2013-11-16 10:25:00,60.3,5.1,29.55,SSW,203,20.1,20.1,11,0.01,,,0.05,WUHU216HW,2013-11-16 16:25:00,
2013-11-16 10:30:00,60.1,3.4,29.55,South,180,14.3,20.1,10,0.01,,,0.05,WUHU216HW,2013-11-16 16:30:00,
2013-11-16 10:35:00,60.1,5.0,29.55,South,180,16.3,20.1,11,0.01,,,0.05,WUHU216HW,2013-11-16 16:35:00,
2013-11-16 10:40:00,60.5,6.9,29.54,SSW,203,17.2,17.2,12,0.01,,,0.05,WUHU216HW,2013-11-16 16:40:00,
2013-11-16 10:45:00,60.8,8.6,29.54,SSW,203,13.2,18.8,13,0.01,,,0.05,WUHU216HW,2013-11-16 16:45:00,
2013-11-16 10:50:00,60.8,11.8,29.53,SSW,203,16.8,18.8,15,0.01,,,0.05,WUHU216HW,2013-11-16 16:50:00,
2013-11-16 10:55:00,61.4,16.9,29.53,South,180,25.1,25.1,18,0.01,,,0.05,WUHU216HW,2013-11-16 16:55:00,
2013-11-16 11:00:00,61.6,14.0,29.53,South,180,13.2,25.1,16,0.01,,,0.05,WUHU216HW,2013-11-16 17:00:00,
2013-11-16 11:05:00,61.7,17.2,29.52,SSW,203,14.3,25.1,18,0.01,,,0.05,WUHU216HW,2013-11-16 17:05:00,
2013-11-16 11:10:00,61.6,18.6,29.52,South,180,16.6,16.6,19,0.01,,,0.05,WUHU216HW,2013-11-16 17:10:00,
2013-11-16 11:15:00,61.4,15.4,29.52,SSW,203,12.1,16.6,17,0.01,,,0.05,WUHU216HW,2013-11-16 17:15:00,
2013-11-16 11:20:00,62.1,19.1,29.50,South,180,29.5,29.5,19,0.00,,,0.05,WUHU216HW,2013-11-16 17:20:00,
2013-11-16 11:25:00,62.1,21.6,29.50,South,180,20.1,29.5,21,0.00,,,0.05,WUHU216HW,2013-11-16 17:25:00,
2013-11-16 11:30:00,62.3,21.8,29.50,South,180,15.7,29.5,21,0.00,,,0.05,WUHU216HW,2013-11-16 17:30:00,
2013-11-16 11:35:00,62.5,22.9,29.50,South,180,21.0,21.0,22,0.00,,,0.05,WUHU216HW,2013-11-16 17:35:00,
2013-11-16 11:40:00,62.8,26.1,29.50,South,180,19.2,21.0,25,0.00,,,0.05,WUHU216HW,2013-11-16 17:40:00,
2013-11-16 11:45:00,62.8,24.1,29.50,SSW,203,14.3,19.2,23,0.00,,,0.05,WUHU216HW,2013-11-16 17:45:00,
2013-11-16 11:50:00,63.4,27.6,29.50,South,180,20.6,20.6,26,0.00,,,0.05,WUHU216HW,2013-11-16 17:50:00,
2013-11-16 11:55:00,63.4,28.5,29.50,South,180,11.9,20.6,27,0.00,,,0.05,WUHU216HW,2013-11-16 17:55:00,
2013-11-16 12:00:00,63.4,29.4,29.50,SSE,158,12.1,13.6,28,0.00,,,0.05,WUHU216HW,2013-11-16 18:00:00,
2013-11-16 12:05:00,63.4,31.4,29.50,South,180,18.1,18.1,30,0.00,,,0.05,WUHU216HW,2013-11-16 18:05:00,
2013-11-16 12:10:00,63.2,30.3,29.50,South,180,13.9,18.1,29,0.00,,,0.05,WUHU216HW,2013-11-16 18:10:00,
2013-11-16 12:15:00,63.2,29.4,29.49,South,180,12.3,18.1,28,0.00,,,0.05,WUHU216HW,2013-11-16 18:15:00,
2013-11-16 12:20:00,63.2,29.4,29.49,South,180,10.5,21.7,28,0.00,,,0.05,WUHU216HW,2013-11-16 18:20:00,
2013-11-16 12:25:00,63.4,30.4,29.48,SW,225,12.1,21.7,29,0.00,,,0.05,WUHU216HW,2013-11-16 18:25:00,
2013-11-16 12:30:00,63.4,30.4,29.49,SSW,203,16.3,16.3,29,0.00,,,0.05,WUHU216HW,2013-11-16 18:30:00,
2013-11-16 12:35:00,63.5,31.6,29.48,SSW,203,16.3,16.3,30,0.00,,,0.05,WUHU216HW,2013-11-16 18:35:00,
2013-11-16 12:40:00,63.7,31.8,29.47,SSE,158,20.1,20.1,30,0.00,,,0.05,WUHU216HW,2013-11-16 18:40:00,
2013-11-16 12:45:00,64.4,33.1,29.47,SW,225,14.3,20.1,31,0.00,,,0.05,WUHU216HW,2013-11-16 18:45:00,
2013-11-16 12:50:00,64.6,35.5,29.47,SSW,203,14.3,18.3,34,0.00,,,0.05,WUHU216HW,2013-11-16 18:50:00,
2013-11-16 12:55:00,64.6,34.8,29.46,SSE,158,15.2,15.2,33,0.00,,,0.05,WUHU216HW,2013-11-16 18:55:00,
2013-11-16 12:59:00,64.6,35.5,29.47,SW,225,13.0,15.2,34,0.00,,,0.05,WUHU216HW,2013-11-16 18:59:00,
2013-11-16 13:05:00,64.8,35.7,29.47,SSW,203,11.4,13.2,34,0.00,,,0.05,WUHU216HW,2013-11-16 19:05:00,
2013-11-16 13:10:00,64.8,35.7,29.46,South,180,19.5,19.5,34,0.00,,,0.05,WUHU216HW,2013-11-16 19:10:00,
2013-11-16 13:15:00,64.4,35.3,29.46,South,180,19.7,19.7,34,0.00,,,0.05,WUHU216HW,2013-11-16 19:15:00,
2013-11-16 13:20:00,64.6,34.8,29.46,SSE,158,19.2,19.7,33,0.00,,,0.05,WUHU216HW,2013-11-16 19:20:00,
2013-11-16 13:25:00,65.0,37.2,29.45,SSW,203,16.6,19.7,36,0.00,,,0.05,WUHU216HW,2013-11-16 19:25:00,
2013-11-16 13:30:00,65.0,35.7,29.45,SSE,158,16.6,19.2,34,0.00,,,0.05,WUHU216HW,2013-11-16 19:30:00,
2013-11-16 13:35:00,65.2,37.4,29.45,South,180,13.9,16.6,36,0.00,,,0.05,WUHU216HW,2013-11-16 19:35:00,
2013-11-16 13:40:00,65.3,38.3,29.45,SSW,203,15.0,16.6,37,0.00,,,0.05,WUHU216HW,2013-11-16 19:40:00,
2013-11-16 13:45:00,65.3,38.3,29.44,South,180,17.9,17.9,37,0.00,,,0.05,WUHU216HW,2013-11-16 19:45:00,
2013-11-16 13:50:00,65.3,39.0,29.45,South,180,15.0,17.9,38,0.00,,,0.05,WUHU216HW,2013-11-16 19:50:00,
2013-11-16 13:55:00,65.3,39.0,29.44,SSW,203,19.0,19.0,38,0.00,,,0.05,WUHU216HW,2013-11-16 19:55:00,
2013-11-16 14:00:00,65.5,39.2,29.44,SSW,203,12.8,19.0,38,0.00,,,0.05,WUHU216HW,2013-11-16 20:00:00,
2013-11-16 14:05:00,65.7,40.1,29.43,South,180,12.1,19.0,39,0.00,,,0.05,WUHU216HW,2013-11-16 20:05:00,
2013-11-16 14:10:00,65.7,40.1,29.44,SW,225,15.7,15.7,39,0.00,,,0.05,WUHU216HW,2013-11-16 20:10:00,
2013-11-16 14:15:00,65.7,40.8,29.44,SSW,203,14.3,15.7,40,0.00,,,0.05,WUHU216HW,2013-11-16 20:15:00,
2013-11-16 14:20:00,65.7,40.8,29.44,SSW,203,15.7,15.7,40,0.00,,,0.05,WUHU216HW,2013-11-16 20:20:00,
2013-11-16 14:25:00,65.7,40.1,29.44,South,180,14.1,15.7,39,0.00,,,0.05,WUHU216HW,2013-11-16 20:25:00,
2013-11-16 14:30:00,66.1,41.0,29.43,South,180,17.0,17.0,40,0.00,,,0.05,WUHU216HW,2013-11-16 20:30:00,
2013-11-16 14:35:00,66.2,41.9,29.44,SW,225,11.6,17.0,41,0.00,,,0.05,WUHU216HW,2013-11-16 20:35:00,
2013-11-16 14:39:00,66.6,42.8,29.43,SSW,203,17.2,17.2,42,0.00,,,0.05,WUHU216HW,2013-11-16 20:39:00,
2013-11-16 14:45:00,66.6,42.8,29.43,SSW,203,17.2,17.2,42,0.00,,,0.05,WUHU216HW,2013-11-16 20:45:00,
2013-11-16 14:50:00,66.6,42.8,29.43,SSW,203,17.2,17.2,42,0.00,,,0.05,WUHU216HW,2013-11-16 20:50:00,
2013-11-16 15:00:00,67.5,46.5,29.42,SSW,203,16.1,16.1,47,0.00,,,0.05,WUHU216HW,2013-11-16 21:00:00,
2013-11-16 15:05:00,67.3,45.7,29.43,SSW,203,16.6,16.6,46,0.00,,,0.05,WUHU216HW,2013-11-16 21:05:00,
2013-11-16 15:10:00,67.0,44.8,29.42,South,180,12.8,24.4,45,0.00,,,0.05,WUHU216HW,2013-11-16 21:10:00,
2013-11-16 15:15:00,67.1,45.0,29.42,SSW,203,13.6,24.4,45,0.00,,,0.05,WUHU216HW,2013-11-16 21:15:00,
2013-11-16 15:20:00,68.0,47.0,29.42,SSW,203,13.4,13.6,47,0.00,,,0.05,WUHU216HW,2013-11-16 21:20:00,
2013-11-16 15:25:00,68.4,48.5,29.42,SW,225,13.4,13.6,49,0.00,,,0.05,WUHU216HW,2013-11-16 21:25:00,
2013-11-16 15:30:00,68.0,47.6,29.42,SSW,203,13.6,13.6,48,0.00,,,0.05,WUHU216HW,2013-11-16 21:30:00,
2013-11-16 15:35:00,68.0,47.6,29.42,SSW,203,13.4,13.6,48,0.00,,,0.05,WUHU216HW,2013-11-16 21:35:00,
2013-11-16 15:40:00,67.7,47.3,29.42,South,180,17.2,17.2,48,0.00,,,0.05,WUHU216HW,2013-11-16 21:40:00,
2013-11-16 15:45:00,67.7,47.3,29.42,South,180,17.2,17.2,48,0.00,,,0.05,WUHU216HW,2013-11-16 21:45:00,
2013-11-16 15:50:00,67.7,47.3,29.42,South,180,17.2,17.2,48,0.00,,,0.05,WUHU216HW,2013-11-16 21:50:00,
2013-11-16 16:00:00,67.7,47.9,29.42,SSW,203,15.2,15.2,49,0.00,,,0.05,WUHU216HW,2013-11-16 22:00:00,
2013-11-16 16:05:00,67.3,47.0,29.43,SW,225,10.3,15.2,48,0.00,,,0.05,WUHU216HW,2013-11-16 22:05:00,
2013-11-16 16:10:00,67.3,47.0,29.43,SSW,203,17.4,17.4,48,0.00,,,0.05,WUHU216HW,2013-11-16 22:10:00,
2013-11-16 16:15:00,67.0,46.0,29.43,SSW,203,11.9,17.4,47,0.00,,,0.05,WUHU216HW,2013-11-16 22:15:00,
2013-11-16 16:20:00,67.0,46.0,29.43,SSW,203,11.2,17.4,47,0.00,,,0.05,WUHU216HW,2013-11-16 22:20:00,
2013-11-16 16:25:00,67.0,45.5,29.44,SSW,203,8.1,12.5,46,0.00,,,0.05,WUHU216HW,2013-11-16 22:25:00,
2013-11-16 16:30:00,67.0,45.5,29.44,SSW,203,9.4,12.5,46,0.00,,,0.05,WUHU216HW,2013-11-16 22:30:00,
2013-11-16 16:35:00,67.0,45.5,29.44,SW,225,10.7,11.4,46,0.00,,,0.05,WUHU216HW,2013-11-16 22:35:00,
2013-11-16 16:40:00,66.8,45.3,29.44,South,180,10.3,11.4,46,0.00,,,0.05,WUHU216HW,2013-11-16 22:40:00,
2013-11-16 16:45:00,66.6,44.6,29.45,SSW,203,8.1,10.7,45,0.00,,,0.05,WUHU216HW,2013-11-16 22:45:00,
2013-11-16 16:50:00,66.6,44.6,29.45,South,180,8.5,10.3,45,0.00,,,0.05,WUHU216HW,2013-11-16 22:50:00,
2013-11-16 16:55:00,66.6,44.6,29.45,South,180,8.5,8.5,45,0.00,,,0.05,WUHU216HW,2013-11-16 22:55:00,
2013-11-16 17:00:00,66.6,44.6,29.45,South,180,9.4,9.4,45,0.00,,,0.05,WUHU216HW,2013-11-16 23:00:00,
2013-11-16 17:05:00,66.6,44.6,29.45,SSW,203,7.6,9.4,45,0.00,,,0.05,WUHU216HW,2013-11-16 23:05:00,
2013-11-16 17:10:00,66.4,44.4,29.46,SW,225,9.4,9.4,45,0.00,,,0.05,WUHU216HW,2013-11-16 23:10:00,
2013-11-16 17:15:00,66.4,43.7,29.46,SSW,203,13.4,13.4,44,0.00,,,0.05,WUHU216HW,2013-11-16 23:15:00,
2013-11-16 17:20:00,66.6,43.9,29.46,SSW,203,6.7,13.4,44,0.00,,,0.05,WUHU216HW,2013-11-16 23:20:00,
2013-11-16 17:25:00,66.6,43.9,29.46,SSW,203,9.8,9.8,44,0.00,,,0.05,WUHU216HW,2013-11-16 23:25:00,
2013-11-16 17:30:00,66.8,44.6,29.47,South,180,6.9,9.8,45,0.00,,,0.05,WUHU216HW,2013-11-16 23:30:00,
2013-11-16 17:35:00,67.0,44.8,29.47,SW,225,8.7,10.5,45,0.00,,,0.05,WUHU216HW,2013-11-16 23:35:00,
2013-11-16 17:40:00,67.0,45.5,29.47,SSW,203,10.3,10.5,46,0.00,,,0.05,WUHU216HW,2013-11-16 23:40:00,
2013-11-16 17:45:00,67.0,45.5,29.47,WSW,248,14.3,14.3,46,0.00,,,0.05,WUHU216HW,2013-11-16 23:45:00,
2013-11-16 17:50:00,66.8,44.1,29.47,SSW,203,7.8,14.3,44,0.00,,,0.05,WUHU216HW,2013-11-16 23:50:00,
2013-11-16 17:55:00,66.6,43.9,29.47,SSW,203,9.4,14.3,44,0.00,,,0.05,WUHU216HW,2013-11-16 23:55:00,
2013-11-16 18:00:00,66.4,43.7,29.47,South,180,8.5,9.4,44,0.00,,,0.05,WUHU216HW,2013-11-17 00:00:00,
2013-11-16 18:05:00,66.1,42.9,29.47,South,180,6.9,9.4,43,0.00,,,0.05,WUHU216HW,2013-11-17 00:05:00,
2013-11-16 18:10:00,65.9,42.7,29.47,SSW,203,9.4,9.4,43,0.00,,,0.05,WUHU216HW,2013-11-17 00:10:00,
2013-11-16 18:15:00,65.5,41.1,29.47,South,180,8.7,9.4,41,0.00,,,0.05,WUHU216HW,2013-11-17 00:15:00,
2013-11-16 18:20:00,65.3,41.0,29.47,SSW,203,5.8,9.4,41,0.00,,,0.05,WUHU216HW,2013-11-17 00:20:00,
2013-11-16 18:25:00,65.2,39.5,29.47,SSW,203,5.8,8.7,39,0.00,,,0.05,WUHU216HW,2013-11-17 00:25:00,
2013-11-16 18:30:00,65.2,39.5,29.47,South,180,11.6,11.6,39,0.00,,,0.05,WUHU216HW,2013-11-17 00:30:00,
2013-11-16 18:35:00,65.2,39.5,29.46,SSW,203,9.2,11.6,39,0.00,,,0.05,WUHU216HW,2013-11-17 00:35:00,
2013-11-16 18:40:00,65.2,39.5,29.46,SSE,158,11.2,11.2,39,0.00,,,0.05,WUHU216HW,2013-11-17 00:40:00,
2013-11-16 18:45:00,65.0,38.6,29.46,South,180,11.9,11.9,38,0.00,,,0.05,WUHU216HW,2013-11-17 00:45:00,
2013-11-16 18:50:00,65.2,38.8,29.46,South,180,10.5,11.9,38,0.00,,,0.05,WUHU216HW,2013-11-17 00:50:00,
2013-11-16 18:55:00,65.2,38.1,29.46,South,180,9.2,10.5,37,0.00,,,0.05,WUHU216HW,2013-11-17 00:55:00,
2013-11-16 19:00:00,65.2,38.8,29.45,South,180,13.6,13.6,38,0.00,,,0.05,WUHU216HW,2013-11-17 01:00:00,
2013-11-16 19:05:00,65.5,39.9,29.45,South,180,10.7,13.6,39,0.00,,,0.05,WUHU216HW,2013-11-17 01:05:00,
2013-11-16 19:10:00,65.5,40.6,29.45,SSW,203,13.9,13.9,40,0.00,,,0.05,WUHU216HW,2013-11-17 01:10:00,
2013-11-16 19:15:00,65.7,40.8,29.45,SSE,158,13.6,13.9,40,0.00,,,0.05,WUHU216HW,2013-11-17 01:15:00,
2013-11-16 19:20:00,66.1,41.7,29.45,SSW,203,12.8,13.9,41,0.00,,,0.05,WUHU216HW,2013-11-17 01:20:00,
2013-11-16 19:25:00,66.1,41.7,29.45,SSW,203,12.8,12.8,41,0.00,,,0.05,WUHU216HW,2013-11-17 01:25:00,
2013-11-16 19:47:00,65.3,39.7,29.45,SSW,203,9.8,9.8,39,0.00,,,0.05,WUHU216HW,2013-11-17 01:47:00,
2013-11-16 19:52:00,65.3,39.7,29.46,South,180,17.0,17.0,39,0.00,,,0.05,WUHU216HW,2013-11-17 01:52:00,
2013-11-16 19:57:00,65.2,39.5,29.45,SSW,203,14.8,17.0,39,0.00,,,0.05,WUHU216HW,2013-11-17 01:57:00,
2013-11-16 20:02:00,65.3,39.0,29.46,South,180,11.6,17.0,38,0.00,,,0.05,WUHU216HW,2013-11-17 02:02:00,
2013-11-16 20:07:00,65.3,39.0,29.46,SSW,203,12.8,14.8,38,0.00,,,0.05,WUHU216HW,2013-11-17 02:07:00,
2013-11-16 20:12:00,65.2,38.8,29.46,South,180,9.8,12.8,38,0.00,,,0.05,WUHU216HW,2013-11-17 02:12:00,
2013-11-16 20:17:00,65.2,38.8,29.46,SSE,158,9.2,12.8,38,0.00,,,0.05,WUHU216HW,2013-11-17 02:17:00,
2013-11-16 20:22:00,65.2,38.8,29.46,South,180,10.3,14.3,38,0.00,,,0.05,WUHU216HW,2013-11-17 02:22:00,
2013-11-16 20:27:00,65.2,38.1,29.47,SSE,158,8.7,14.3,37,0.00,,,0.05,WUHU216HW,2013-11-17 02:27:00,
2013-11-16 20:32:00,65.2,38.1,29.47,SW,225,8.5,10.3,37,0.00,,,0.05,WUHU216HW,2013-11-17 02:32:00,
2013-11-16 20:37:00,65.2,38.1,29.47,SSW,203,11.0,11.0,37,0.00,,,0.05,WUHU216HW,2013-11-17 02:37:00,
2013-11-16 20:42:00,65.2,38.1,29.47,SSW,203,11.0,11.0,37,0.00,,,0.05,WUHU216HW,2013-11-17 02:42:00,
2013-11-16 21:00:00,64.8,37.1,29.46,South,180,12.8,12.8,36,0.00,,,0.05,WUHU216HW,2013-11-17 03:00:00,
2013-11-16 21:05:00,64.6,35.5,29.45,SSW,203,9.8,13.0,34,0.00,,,0.05,WUHU216HW,2013-11-17 03:05:00,
2013-11-16 21:10:00,64.4,35.3,29.45,SSW,203,14.3,14.3,34,0.00,,,0.05,WUHU216HW,2013-11-17 03:10:00,
2013-11-16 21:15:00,64.3,34.4,29.45,South,180,15.0,15.0,33,0.00,,,0.05,WUHU216HW,2013-11-17 03:15:00,
2013-11-16 21:20:00,64.1,34.2,29.45,SSW,203,10.7,15.0,33,0.00,,,0.05,WUHU216HW,2013-11-17 03:20:00,
2013-11-16 21:25:00,63.5,32.3,29.45,SSW,203,11.0,15.0,31,0.00,,,0.05,WUHU216HW,2013-11-17 03:25:00,
2013-11-16 21:30:00,63.4,32.1,29.45,South,180,12.5,12.5,31,0.00,,,0.05,WUHU216HW,2013-11-17 03:30:00,
2013-11-16 21:35:00,63.2,31.2,29.45,SSW,203,13.0,13.0,30,0.00,,,0.05,WUHU216HW,2013-11-17 03:35:00,
2013-11-16 21:40:00,63.2,30.3,29.45,South,180,11.6,13.0,29,0.00,,,0.05,WUHU216HW,2013-11-17 03:40:00,
2013-11-16 21:45:00,63.2,30.3,29.45,South,180,8.7,11.9,29,0.00,,,0.05,WUHU216HW,2013-11-17 03:45:00,
2013-11-16 21:50:00,63.0,30.2,29.45,South,180,14.3,14.3,29,0.00,,,0.05,WUHU216HW,2013-11-17 03:50:00,
2013-11-16 21:55:00,63.0,29.2,29.45,South,180,10.7,14.3,28,0.00,,,0.05,WUHU216HW,2013-11-17 03:55:00,
2013-11-16 22:00:00,63.0,29.2,29.45,South,180,14.3,14.3,28,0.00,,,0.05,WUHU216HW,2013-11-17 04:00:00,
2013-11-16 22:05:00,63.2,29.4,29.45,South,180,11.0,14.3,28,0.00,,,0.05,WUHU216HW,2013-11-17 04:05:00,
2013-11-16 22:10:00,63.4,29.4,29.45,SSW,203,11.2,14.3,28,0.00,,,0.05,WUHU216HW,2013-11-17 04:10:00,
2013-11-16 22:15:00,63.4,29.4,29.45,SSW,203,9.8,11.2,28,0.00,,,0.05,WUHU216HW,2013-11-17 04:15:00,
2013-11-16 22:20:00,63.5,29.6,29.45,SSW,203,12.3,12.3,28,0.00,,,0.05,WUHU216HW,2013-11-17 04:20:00,
2013-11-16 22:25:00,63.7,29.8,29.45,South,180,17.2,17.2,28,0.00,,,0.05,WUHU216HW,2013-11-17 04:25:00,
2013-11-16 22:30:00,63.7,30.8,29.44,South,180,12.1,17.2,29,0.00,,,0.05,WUHU216HW,2013-11-17 04:30:00,
2013-11-16 22:35:00,64.1,31.1,29.45,SSE,158,11.4,17.2,29,0.00,,,0.05,WUHU216HW,2013-11-17 04:35:00,
2013-11-16 22:40:00,64.1,32.0,29.44,South,180,13.4,13.4,30,0.00,,,0.05,WUHU216HW,2013-11-17 04:40:00,
2013-11-16 22:45:00,64.3,32.2,29.44,SW,225,13.6,13.6,30,0.00,,,0.05,WUHU216HW,2013-11-17 04:45:00,
2013-11-16 22:50:00,64.4,31.4,29.44,SSW,203,14.8,14.8,29,0.00,,,0.05,WUHU216HW,2013-11-17 04:50:00,
2013-11-16 22:55:00,64.6,32.6,29.45,South,180,15.2,15.2,30,0.00,,,0.05,WUHU216HW,2013-11-17 04:55:00,
2013-11-16 23:00:00,65.0,32.9,29.44,South,180,15.0,15.2,30,0.00,,,0.05,WUHU216HW,2013-11-17 05:00:00,
2013-11-16 23:01:00,65.0,32.9,29.44,South,180,15.0,15.2,30,0.00,,,0.05,WUHU216HW,2013-11-17 05:01:00,
2013-11-16 23:06:00,65.2,33.0,29.44,SSW,203,9.8,15.0,30,0.00,,,0.05,WUHU216HW,2013-11-17 05:06:00,
2013-11-16 23:11:00,65.2,33.0,29.44,SSW,203,20.1,20.1,30,0.00,,,0.05,WUHU216HW,2013-11-17 05:11:00,
2013-11-16 23:16:00,65.5,33.4,29.44,SSW,203,11.0,20.1,30,0.00,,,0.05,WUHU216HW,2013-11-17 05:16:00,
2013-11-16 23:21:00,65.5,33.4,29.44,South,180,10.3,15.2,30,0.00,,,0.05,WUHU216HW,2013-11-17 05:21:00,
2013-11-16 23:26:00,65.5,33.4,29.44,South,180,10.7,14.3,30,0.00,,,0.05,WUHU216HW,2013-11-17 05:26:00,
2013-11-16 23:31:00,65.5,33.4,29.44,South,180,12.3,13.6,30,0.00,,,0.05,WUHU216HW,2013-11-17 05:31:00,
2013-11-16 23:36:00,65.5,33.4,29.44,South,180,9.2,13.6,30,0.00,,,0.05,WUHU216HW,2013-11-17 05:36:00,
2013-11-16 23:41:00,65.3,33.2,29.43,SSW,203,17.2,17.2,30,0.00,,,0.05,WUHU216HW,2013-11-17 05:41:00,
2013-11-16 23:46:00,65.2,32.0,29.44,SSW,203,6.9,17.2,29,0.00,,,0.05,WUHU216HW,2013-11-17 05:46:00,
2013-11-16 23:51:00,65.2,31.1,29.43,SSW,203,10.1,15.7,28,0.00,,,0.05,WUHU216HW,2013-11-17 05:51:00,
2013-11-16 23:56:00,65.0,29.9,29.43,SSW,203,11.0,12.1,27,0.00,,,0.05,WUHU216HW,2013-11-17 05:56:00,